Time,TemperatureF,DewpointF,PressureIn,WindDirection,WindDirectionDegrees,WindSpeedMPH,WindSpeedGustMPH,Humidity,HourlyPrecipIn,Conditions,Clouds,dailyrainin,SoftwareType,DateUTC
2013-05-06 00:02:00,56.1,54.7,30.28,SE,135,0.7,2.2,95,0.00,,,0.89,pywws,2013-05-06 04:02:00,
2013-05-06 00:08:00,56.1,54.7,30.28,SE,135,0.0,2.2,95,0.00,,,0.00,pywws,2013-05-06 04:08:00,
2013-05-06 00:13:00,56.1,54.7,30.28,SE,135,0.0,0.7,95,0.00,,,0.00,pywws,2013-05-06 04:13:00,
2013-05-06 00:18:00,56.1,54.7,30.28,East,90,0.0,0.7,95,0.00,,,0.00,pywws,2013-05-06 04:18:00,
2013-05-06 00:24:00,56.3,54.9,30.29,SE,135,0.0,1.6,95,0.00,,,0.00,pywws,2013-05-06 04:24:00,
2013-05-06 00:34:00,56.5,55.4,30.29,SE,135,0.0,0.7,96,0.00,,,0.00,pywws,2013-05-06 04:34:00,
2013-05-06 00:40:00,56.8,55.7,30.29,SE,135,0.0,0.7,96,0.00,,,0.00,pywws,2013-05-06 04:40:00,
2013-05-06 00:45:00,56.8,55.7,30.30,East,90,0.0,1.6,96,0.00,,,0.00,pywws,2013-05-06 04:45:00,
2013-05-06 00:50:00,56.7,55.5,30.30,SE,135,0.0,0.7,96,0.00,,,0.00,pywws,2013-05-06 04:50:00,
2013-05-06 01:01:00,56.7,55.5,30.30,SE,135,0.0,0.7,96,0.00,,,0.00,pywws,2013-05-06 05:01:00,
2013-05-06 01:06:00,56.5,55.6,30.30,SE,135,0.0,0.0,97,0.00,,,0.00,pywws,2013-05-06 05:06:00,
2013-05-06 01:12:00,56.5,55.6,30.30,South,180,0.0,0.7,97,0.00,,,0.00,pywws,2013-05-06 05:12:00,
2013-05-06 01:17:00,56.5,55.6,30.30,SE,135,0.0,0.7,97,0.00,,,0.00,pywws,2013-05-06 05:17:00,
2013-05-06 01:33:00,56.5,55.6,30.31,SE,135,0.0,0.7,97,0.00,,,0.00,pywws,2013-05-06 05:33:00,
2013-05-06 01:37:00,56.7,55.8,30.31,South,180,0.0,0.7,97,0.00,,,0.00,pywws,2013-05-06 05:37:00,
2013-05-06 01:43:00,56.7,55.8,30.31,South,180,0.0,0.7,97,0.00,,,0.00,pywws,2013-05-06 05:43:00,
2013-05-06 01:48:00,56.7,55.8,30.31,West,270,0.0,0.0,97,0.00,,,0.00,pywws,2013-05-06 05:48:00,
2013-05-06 01:53:00,56.7,55.8,30.31,SE,135,0.0,0.0,97,0.00,,,0.00,pywws,2013-05-06 05:53:00,
2013-05-06 02:05:00,56.5,55.6,30.31,SW,225,0.0,0.0,97,0.00,,,0.00,pywws,2013-05-06 06:05:00,
2013-05-06 02:10:00,55.9,55.1,30.32,WSW,248,0.0,0.0,97,0.00,,,0.00,pywws,2013-05-06 06:10:00,
2013-05-06 02:16:00,55.8,54.9,30.32,South,180,0.0,0.0,97,0.00,,,0.00,pywws,2013-05-06 06:16:00,
2013-05-06 02:21:00,55.6,54.7,30.32,West,270,0.0,0.0,97,0.00,,,0.00,pywws,2013-05-06 06:21:00,
2013-05-06 02:32:00,55.4,54.6,30.32,SE,135,0.0,0.0,97,0.00,,,0.00,pywws,2013-05-06 06:32:00,
2013-05-06 02:36:00,55.0,54.2,30.32,SE,135,0.0,0.0,97,0.00,,,0.00,pywws,2013-05-06 06:36:00,
2013-05-06 02:41:00,55.0,54.2,30.32,SE,135,0.0,0.0,97,0.00,,,0.00,pywws,2013-05-06 06:41:00,
2013-05-06 02:47:00,54.7,53.8,30.32,SE,135,0.0,0.0,97,0.00,,,0.00,pywws,2013-05-06 06:47:00,
2013-05-06 02:52:00,54.5,53.7,30.33,SE,135,0.0,0.7,97,0.00,,,0.00,pywws,2013-05-06 06:52:00,
2013-05-06 03:04:00,54.5,53.7,30.33,SE,135,0.0,0.0,97,0.00,,,0.00,pywws,2013-05-06 07:04:00,
2013-05-06 03:09:00,54.1,53.3,30.33,NW,315,0.0,0.0,97,0.00,,,0.00,pywws,2013-05-06 07:09:00,
2013-05-06 03:14:00,54.1,53.3,30.33,East,90,0.0,0.0,97,0.00,,,0.00,pywws,2013-05-06 07:14:00,
2013-05-06 03:20:00,54.1,53.3,30.33,North,0,0.0,0.7,97,0.00,,,0.00,pywws,2013-05-06 07:20:00,
2013-05-06 03:25:00,54.0,53.1,30.33,SE,135,0.0,0.0,97,0.00,,,0.00,pywws,2013-05-06 07:25:00,
2013-05-06 03:36:00,54.0,53.1,30.34,SE,135,0.0,0.0,97,0.00,,,0.00,pywws,2013-05-06 07:36:00,
2013-05-06 03:41:00,53.8,52.9,30.34,NE,45,0.0,0.0,97,0.00,,,0.00,pywws,2013-05-06 07:41:00,
2013-05-06 03:46:00,53.8,52.9,30.34,East,90,0.0,0.0,97,0.00,,,0.00,pywws,2013-05-06 07:46:00,
2013-05-06 03:51:00,53.8,52.9,30.34,East,90,0.0,0.0,97,0.00,,,0.00,pywws,2013-05-06 07:51:00,
2013-05-06 04:01:00,53.2,52.4,30.34,East,90,0.0,0.0,97,0.00,,,0.00,pywws,2013-05-06 08:01:00,
2013-05-06 04:06:00,53.2,52.4,30.34,SW,225,0.0,0.7,97,0.00,,,0.00,pywws,2013-05-06 08:06:00,
2013-05-06 04:11:00,52.9,52.1,30.34,SW,225,0.0,0.0,97,0.00,,,0.00,pywws,2013-05-06 08:11:00,
2013-05-06 04:16:00,52.7,51.9,30.34,SW,225,0.0,0.7,97,0.00,,,0.00,pywws,2013-05-06 08:16:00,
2013-05-06 04:21:00,52.7,51.9,30.34,SW,225,0.0,0.0,97,0.00,,,0.00,pywws,2013-05-06 08:21:00,
2013-05-06 04:31:00,52.7,51.9,30.34,SW,225,0.0,0.7,97,0.00,,,0.00,pywws,2013-05-06 08:31:00,
2013-05-06 04:36:00,52.5,51.7,30.35,SE,135,0.0,0.0,97,0.00,,,0.00,pywws,2013-05-06 08:36:00,
2013-05-06 04:41:00,52.3,51.5,30.35,South,180,0.0,0.0,97,0.00,,,0.00,pywws,2013-05-06 08:41:00,
2013-05-06 04:46:00,52.2,51.3,30.35,SE,135,0.0,0.7,97,0.00,,,0.00,pywws,2013-05-06 08:46:00,
2013-05-06 04:51:00,52.2,51.3,30.35,SE,135,0.0,0.0,97,0.00,,,0.00,pywws,2013-05-06 08:51:00,
2013-05-06 05:01:00,52.0,51.2,30.35,SE,135,0.0,0.0,97,0.00,,,0.00,pywws,2013-05-06 09:01:00,
2013-05-06 05:06:00,52.0,51.2,30.36,South,180,0.0,0.0,97,0.00,,,0.00,pywws,2013-05-06 09:06:00,
2013-05-06 05:11:00,52.2,51.6,30.36,NW,315,0.0,0.0,98,0.00,,,0.00,pywws,2013-05-06 09:11:00,
2013-05-06 05:16:00,52.2,51.3,30.36,NW,315,0.0,0.0,97,0.00,,,0.00,pywws,2013-05-06 09:16:00,
2013-05-06 05:21:00,52.2,51.6,30.36,SE,135,0.0,0.0,98,0.00,,,0.00,pywws,2013-05-06 09:21:00,
2013-05-06 05:31:00,52.2,51.6,30.36,SW,225,0.0,0.0,98,0.00,,,0.00,pywws,2013-05-06 09:31:00,
2013-05-06 05:36:00,52.0,51.4,30.36,SW,225,0.0,0.0,98,0.00,,,0.00,pywws,2013-05-06 09:36:00,
2013-05-06 05:41:00,51.8,51.3,30.36,West,270,0.0,0.7,98,0.00,,,0.00,pywws,2013-05-06 09:41:00,
2013-05-06 05:46:00,51.8,51.3,30.36,SE,135,0.0,0.0,98,0.00,,,0.00,pywws,2013-05-06 09:46:00,
2013-05-06 05:51:00,51.6,51.1,30.37,North,0,0.0,1.6,98,0.00,,,0.00,pywws,2013-05-06 09:51:00,
2013-05-06 06:01:00,51.4,50.9,30.37,North,0,0.0,0.7,98,0.00,,,0.00,pywws,2013-05-06 10:01:00,
2013-05-06 06:06:00,51.3,50.7,30.37,North,0,0.0,0.7,98,0.00,,,0.00,pywws,2013-05-06 10:06:00,
2013-05-06 06:11:00,51.1,50.5,30.37,West,270,0.0,1.6,98,0.00,,,0.00,pywws,2013-05-06 10:11:00,
2013-05-06 06:16:00,50.9,50.4,30.37,NW,315,0.0,0.7,98,0.00,,,0.00,pywws,2013-05-06 10:16:00,
2013-05-06 06:21:00,50.9,50.4,30.37,NW,315,0.0,0.7,98,0.00,,,0.00,pywws,2013-05-06 10:21:00,
2013-05-06 06:31:00,50.7,50.2,30.37,West,270,0.0,1.6,98,0.00,,,0.00,pywws,2013-05-06 10:31:00,
2013-05-06 06:36:00,50.5,50.0,30.37,West,270,0.0,0.7,98,0.00,,,0.00,pywws,2013-05-06 10:36:00,
2013-05-06 06:41:00,50.4,49.8,30.37,SW,225,0.0,1.6,98,0.00,,,0.00,pywws,2013-05-06 10:41:00,
2013-05-06 06:46:00,50.4,49.8,30.38,West,270,0.0,0.0,98,0.00,,,0.00,pywws,2013-05-06 10:46:00,
2013-05-06 06:51:00,50.5,50.0,30.38,SW,225,0.0,0.0,98,0.00,,,0.00,pywws,2013-05-06 10:51:00,
2013-05-06 07:01:00,50.5,50.0,30.37,West,270,0.0,0.0,98,0.00,,,0.00,pywws,2013-05-06 11:01:00,
2013-05-06 07:06:00,50.7,50.2,30.37,West,270,0.7,1.6,98,0.00,,,0.00,pywws,2013-05-06 11:06:00,
2013-05-06 07:11:00,50.9,50.4,30.37,West,270,1.6,3.1,98,0.00,,,0.00,pywws,2013-05-06 11:11:00,
2013-05-06 07:16:00,50.9,50.4,30.37,NW,315,0.0,1.6,98,0.00,,,0.00,pywws,2013-05-06 11:16:00,
2013-05-06 07:21:00,50.9,50.4,30.37,West,270,0.0,1.6,98,0.00,,,0.00,pywws,2013-05-06 11:21:00,
2013-05-06 07:31:00,51.1,50.5,30.37,West,270,0.7,2.2,98,0.00,,,0.00,pywws,2013-05-06 11:31:00,
2013-05-06 07:36:00,51.1,50.5,30.37,NW,315,0.0,0.7,98,0.00,,,0.00,pywws,2013-05-06 11:36:00,
2013-05-06 07:41:00,51.3,50.7,30.37,West,270,0.0,1.6,98,0.00,,,0.00,pywws,2013-05-06 11:41:00,
2013-05-06 07:46:00,51.3,50.7,30.37,NW,315,0.7,2.2,98,0.00,,,0.00,pywws,2013-05-06 11:46:00,
2013-05-06 07:51:00,51.4,50.9,30.36,West,270,0.0,0.7,98,0.00,,,0.00,pywws,2013-05-06 11:51:00,
2013-05-06 08:01:00,51.4,50.9,30.36,West,270,0.0,1.6,98,0.00,,,0.00,pywws,2013-05-06 12:01:00,
2013-05-06 08:06:00,51.8,51.3,30.36,West,270,0.0,0.7,98,0.00,,,0.00,pywws,2013-05-06 12:06:00,
2013-05-06 08:11:00,52.0,51.4,30.36,NW,315,0.0,0.7,98,0.00,,,0.00,pywws,2013-05-06 12:11:00,
2013-05-06 08:16:00,52.0,51.4,30.36,East,90,0.0,1.6,98,0.00,,,0.00,pywws,2013-05-06 12:16:00,
2013-05-06 08:21:00,52.0,51.2,30.36,West,270,0.0,1.6,97,0.00,,,0.00,pywws,2013-05-06 12:21:00,
2013-05-06 08:31:00,52.3,51.5,30.36,North,0,0.0,0.0,97,0.00,,,0.00,pywws,2013-05-06 12:31:00,
2013-05-06 08:36:00,52.7,51.0,30.36,South,180,1.6,3.8,94,0.00,,,0.00,pywws,2013-05-06 12:36:00,
2013-05-06 08:41:00,52.9,50.9,30.36,SW,225,0.0,2.2,93,0.00,,,0.00,pywws,2013-05-06 12:41:00,
2013-05-06 08:46:00,53.1,50.8,30.36,West,270,0.7,1.6,92,0.00,,,0.00,pywws,2013-05-06 12:46:00,
2013-05-06 08:51:00,53.4,51.2,30.36,NW,315,0.0,1.6,92,0.00,,,0.00,pywws,2013-05-06 12:51:00,
2013-05-06 09:01:00,54.0,51.1,30.35,North,0,1.6,3.1,90,0.00,,,0.00,pywws,2013-05-06 13:01:00,
2013-05-06 09:06:00,54.7,50.9,30.35,ENE,68,1.6,3.1,87,0.00,,,0.00,pywws,2013-05-06 13:06:00,
2013-05-06 09:11:00,55.2,50.5,30.35,NW,315,2.2,3.1,84,0.00,,,0.00,pywws,2013-05-06 13:11:00,
2013-05-06 09:16:00,55.8,50.0,30.35,North,0,0.7,2.2,81,0.00,,,0.00,pywws,2013-05-06 13:16:00,
2013-05-06 09:21:00,57.0,50.9,30.35,SE,135,0.0,1.6,80,0.00,,,0.00,pywws,2013-05-06 13:21:00,
2013-05-06 09:31:00,57.2,49.7,30.35,NW,315,3.1,5.4,76,0.00,,,0.00,pywws,2013-05-06 13:31:00,
2013-05-06 09:36:00,57.7,49.5,30.35,South,180,1.6,3.1,74,0.00,,,0.00,pywws,2013-05-06 13:36:00,
2013-05-06 09:41:00,58.1,49.1,30.35,SE,135,1.6,2.2,72,0.00,,,0.00,pywws,2013-05-06 13:41:00,
2013-05-06 09:46:00,58.5,49.1,30.35,SE,135,2.2,3.8,71,0.00,,,0.00,pywws,2013-05-06 13:46:00,
2013-05-06 09:51:00,59.0,50.4,30.35,South,180,1.6,3.1,73,0.00,,,0.00,pywws,2013-05-06 13:51:00,
2013-05-06 10:01:00,58.3,49.3,30.35,West,270,0.7,2.2,72,0.00,,,0.00,pywws,2013-05-06 14:01:00,
2013-05-06 10:05:00,57.9,49.3,30.35,West,270,0.7,2.2,73,0.00,,,0.00,pywws,2013-05-06 14:05:00,
2013-05-06 10:10:00,57.9,49.3,30.35,West,270,0.7,2.2,73,0.00,,,0.00,pywws,2013-05-06 14:10:00,
2013-05-06 10:15:00,57.9,48.9,30.35,West,270,1.6,3.1,72,0.00,,,0.00,pywws,2013-05-06 14:15:00,
2013-05-06 10:20:00,57.7,49.1,30.35,SE,135,0.0,1.6,73,0.00,,,0.00,pywws,2013-05-06 14:20:00,
2013-05-06 10:31:00,57.7,48.8,30.35,West,270,0.7,2.2,72,0.00,,,0.00,pywws,2013-05-06 14:31:00,
2013-05-06 10:36:00,58.1,48.0,30.35,West,270,5.4,7.6,69,0.00,,,0.00,pywws,2013-05-06 14:36:00,
2013-05-06 10:41:00,57.9,48.6,30.35,SW,225,3.1,6.9,71,0.00,,,0.00,pywws,2013-05-06 14:41:00,
2013-05-06 10:46:00,57.7,48.0,30.35,WNW,292,2.2,5.4,70,0.00,,,0.00,pywws,2013-05-06 14:46:00,
2013-05-06 10:51:00,57.6,48.6,30.34,West,270,3.1,6.0,72,0.00,,,0.00,pywws,2013-05-06 14:51:00,
2013-05-06 11:01:00,57.7,48.4,30.34,SW,225,2.2,3.1,71,0.00,,,0.00,pywws,2013-05-06 15:01:00,
2013-05-06 11:06:00,59.0,49.2,30.34,SW,225,0.0,1.6,70,0.00,,,0.00,pywws,2013-05-06 15:06:00,
2013-05-06 11:11:00,59.9,48.9,30.34,South,180,2.2,4.5,67,0.00,,,0.00,pywws,2013-05-06 15:11:00,
2013-05-06 11:16:00,60.6,49.2,30.34,West,270,0.7,2.2,66,0.00,,,0.00,pywws,2013-05-06 15:16:00,
2013-05-06 11:21:00,62.4,49.7,30.34,South,180,0.0,1.6,63,0.00,,,0.00,pywws,2013-05-06 15:21:00,
2013-05-06 11:31:00,63.1,49.5,30.34,SE,135,0.7,2.2,61,0.00,,,0.00,pywws,2013-05-06 15:31:00,
2013-05-06 11:35:00,63.0,48.4,30.34,West,270,2.2,5.4,59,0.00,,,0.00,pywws,2013-05-06 15:35:00,
2013-05-06 11:40:00,63.5,48.0,30.34,NW,315,0.7,3.1,57,0.00,,,0.00,pywws,2013-05-06 15:40:00,
2013-05-06 11:45:00,64.4,48.4,30.34,SW,225,2.2,3.8,56,0.00,,,0.00,pywws,2013-05-06 15:45:00,
2013-05-06 11:50:00,65.3,47.2,30.34,SW,225,5.4,8.3,52,0.00,,,0.00,pywws,2013-05-06 15:50:00,
2013-05-06 12:01:00,65.3,47.7,30.33,West,270,2.2,5.4,53,0.00,,,0.00,pywws,2013-05-06 16:01:00,
2013-05-06 12:06:00,65.3,48.2,30.33,West,270,0.7,3.1,54,0.00,,,0.00,pywws,2013-05-06 16:06:00,
2013-05-06 12:11:00,66.0,47.9,30.33,SW,225,0.7,3.1,52,0.00,,,0.00,pywws,2013-05-06 16:11:00,
2013-05-06 12:16:00,66.6,47.3,30.33,South,180,3.8,5.4,50,0.00,,,0.00,pywws,2013-05-06 16:16:00,
2013-05-06 12:21:00,67.1,47.3,30.33,West,270,2.2,4.5,49,0.00,,,0.00,pywws,2013-05-06 16:21:00,
2013-05-06 12:31:00,66.4,46.6,30.32,West,270,3.8,5.4,49,0.00,,,0.00,pywws,2013-05-06 16:31:00,
2013-05-06 12:36:00,66.6,47.9,30.32,SW,225,0.7,3.1,51,0.00,,,0.00,pywws,2013-05-06 16:36:00,
2013-05-06 12:41:00,67.1,48.4,30.32,West,270,3.1,4.5,51,0.00,,,0.00,pywws,2013-05-06 16:41:00,
2013-05-06 12:46:00,67.5,47.6,30.32,West,270,0.7,3.8,49,0.00,,,0.00,pywws,2013-05-06 16:46:00,
2013-05-06 12:51:00,67.6,47.8,30.32,West,270,2.2,6.0,49,0.00,,,0.00,pywws,2013-05-06 16:51:00,
2013-05-06 13:01:00,67.8,49.0,30.32,SW,225,0.0,1.6,51,0.00,,,0.00,pywws,2013-05-06 17:01:00,
2013-05-06 13:06:00,69.1,49.1,30.31,West,270,0.7,3.1,49,0.00,,,0.00,pywws,2013-05-06 17:06:00,
2013-05-06 13:11:00,70.0,48.8,30.31,NW,315,1.6,3.8,47,0.00,,,0.00,pywws,2013-05-06 17:11:00,
2013-05-06 13:16:00,69.6,48.5,30.31,West,270,3.1,5.4,47,0.00,,,0.00,pywws,2013-05-06 17:16:00,
2013-05-06 13:21:00,69.3,48.2,30.31,WNW,292,1.6,3.1,47,0.00,,,0.00,pywws,2013-05-06 17:21:00,
2013-05-06 13:31:00,68.9,47.8,30.31,SE,135,0.7,3.1,47,0.00,,,0.00,pywws,2013-05-06 17:31:00,
2013-05-06 13:36:00,69.4,48.3,30.31,East,90,0.7,3.1,47,0.00,,,0.00,pywws,2013-05-06 17:36:00,
2013-05-06 13:41:00,70.0,47.1,30.31,SE,135,3.8,7.6,44,0.00,,,0.00,pywws,2013-05-06 17:41:00,
2013-05-06 13:46:00,69.6,46.1,30.30,South,180,3.8,6.9,43,0.00,,,0.00,pywws,2013-05-06 17:46:00,
2013-05-06 13:51:00,69.3,47.6,30.30,WSW,248,2.2,4.5,46,0.00,,,0.00,pywws,2013-05-06 17:51:00,
2013-05-06 14:01:00,69.8,47.5,30.30,NW,315,1.6,3.8,45,0.00,,,0.00,pywws,2013-05-06 18:01:00,
2013-05-06 14:06:00,70.2,47.8,30.29,SW,225,1.6,3.8,45,0.00,,,0.00,pywws,2013-05-06 18:06:00,
2013-05-06 14:11:00,70.5,48.1,30.29,SW,225,2.2,5.4,45,0.00,,,0.00,pywws,2013-05-06 18:11:00,
2013-05-06 14:16:00,70.9,47.9,30.29,West,270,2.2,3.8,44,0.00,,,0.00,pywws,2013-05-06 18:16:00,
2013-05-06 14:21:00,70.2,47.2,30.29,SW,225,3.1,6.0,44,0.00,,,0.00,pywws,2013-05-06 18:21:00,
2013-05-06 14:31:00,70.2,46.0,30.29,East,90,3.8,6.0,42,0.00,,,0.00,pywws,2013-05-06 18:31:00,
2013-05-06 14:36:00,70.9,47.3,30.28,ENE,68,1.6,3.1,43,0.00,,,0.00,pywws,2013-05-06 18:36:00,
2013-05-06 14:41:00,70.0,47.7,30.28,NW,315,0.7,2.2,45,0.00,,,0.00,pywws,2013-05-06 18:41:00,
2013-05-06 14:46:00,70.2,46.6,30.28,SW,225,3.8,6.0,43,0.00,,,0.00,pywws,2013-05-06 18:46:00,
2013-05-06 14:51:00,70.9,46.6,30.28,SW,225,2.2,3.8,42,0.00,,,0.00,pywws,2013-05-06 18:51:00,
2013-05-06 15:01:00,71.8,47.4,30.28,WNW,292,0.7,3.1,42,0.00,,,0.00,pywws,2013-05-06 19:01:00,
2013-05-06 15:05:00,72.5,46.1,30.27,South,180,4.5,6.9,39,0.00,,,0.00,pywws,2013-05-06 19:05:00,
2013-05-06 15:10:00,71.2,47.0,30.27,West,270,1.6,3.8,42,0.00,,,0.00,pywws,2013-05-06 19:10:00,
2013-05-06 15:15:00,71.1,46.2,30.27,West,270,2.2,6.0,41,0.00,,,0.00,pywws,2013-05-06 19:15:00,
2013-05-06 15:20:00,71.2,46.3,30.27,East,90,2.2,4.5,41,0.00,,,0.00,pywws,2013-05-06 19:20:00,
2013-05-06 15:31:00,71.1,47.4,30.26,NW,315,2.2,5.4,43,0.00,,,0.00,pywws,2013-05-06 19:31:00,
2013-05-06 15:35:00,72.3,46.6,30.26,West,270,2.2,5.4,40,0.00,,,0.00,pywws,2013-05-06 19:35:00,
2013-05-06 15:40:00,72.0,47.6,30.26,SE,135,1.6,3.1,42,0.00,,,0.00,pywws,2013-05-06 19:40:00,
2013-05-06 15:45:00,72.1,46.5,30.26,NW,315,3.1,4.5,40,0.00,,,0.00,pywws,2013-05-06 19:45:00,
2013-05-06 15:50:00,71.6,46.0,30.26,NW,315,3.8,6.0,40,0.00,,,0.00,pywws,2013-05-06 19:50:00,
2013-05-06 16:01:00,71.2,47.0,30.26,South,180,1.6,5.4,42,0.00,,,0.00,pywws,2013-05-06 20:01:00,
2013-05-06 16:05:00,70.5,47.5,30.25,West,270,2.2,5.4,44,0.00,,,0.00,pywws,2013-05-06 20:05:00,
2013-05-06 16:10:00,70.3,44.9,30.25,South,180,6.0,7.6,40,0.00,,,0.00,pywws,2013-05-06 20:10:00,
2013-05-06 16:15:00,69.4,45.3,30.25,WSW,248,1.6,4.5,42,0.00,,,0.00,pywws,2013-05-06 20:15:00,
2013-05-06 16:20:00,69.8,45.0,30.25,SW,225,1.6,3.1,41,0.00,,,0.00,pywws,2013-05-06 20:20:00,
2013-05-06 16:31:00,70.2,46.6,30.25,West,270,0.7,3.8,43,0.00,,,0.00,pywws,2013-05-06 20:31:00,
2013-05-06 16:35:00,69.8,45.7,30.24,North,0,0.7,2.2,42,0.00,,,0.00,pywws,2013-05-06 20:35:00,
2013-05-06 16:40:00,69.4,46.6,30.24,SE,135,0.7,1.6,44,0.00,,,0.00,pywws,2013-05-06 20:40:00,
2013-05-06 16:45:00,69.4,46.6,30.24,SW,225,1.6,3.1,44,0.00,,,0.00,pywws,2013-05-06 20:45:00,
2013-05-06 16:50:00,68.7,45.9,30.24,West,270,3.8,5.4,44,0.00,,,0.00,pywws,2013-05-06 20:50:00,
2013-05-06 17:01:00,68.4,46.2,30.24,SE,135,1.6,4.5,45,0.00,,,0.00,pywws,2013-05-06 21:01:00,
2013-05-06 17:05:00,67.8,46.8,30.24,West,270,1.6,3.1,47,0.00,,,0.00,pywws,2013-05-06 21:05:00,
2013-05-06 17:10:00,67.6,47.8,30.24,South,180,2.2,3.8,49,0.00,,,0.00,pywws,2013-05-06 21:10:00,
2013-05-06 17:15:00,67.5,48.2,30.24,SW,225,1.6,3.8,50,0.00,,,0.00,pywws,2013-05-06 21:15:00,
2013-05-06 17:20:00,67.5,48.2,30.24,North,0,1.6,3.1,50,0.00,,,0.00,pywws,2013-05-06 21:20:00,
2013-05-06 17:31:00,66.9,48.2,30.24,SW,225,0.0,1.6,51,0.00,,,0.00,pywws,2013-05-06 21:31:00,
2013-05-06 17:35:00,66.0,48.4,30.24,West,270,3.1,7.6,53,0.00,,,0.00,pywws,2013-05-06 21:35:00,
2013-05-06 17:40:00,65.8,48.2,30.23,South,180,1.6,4.5,53,0.00,,,0.00,pywws,2013-05-06 21:40:00,
2013-05-06 17:45:00,65.8,48.7,30.23,South,180,0.7,2.2,54,0.00,,,0.00,pywws,2013-05-06 21:45:00,
2013-05-06 17:50:00,65.5,47.9,30.23,South,180,1.6,3.8,53,0.00,,,0.00,pywws,2013-05-06 21:50:00,
2013-05-06 18:01:00,65.3,48.2,30.23,SW,225,2.2,3.8,54,0.00,,,0.00,pywws,2013-05-06 22:01:00,
2013-05-06 18:05:00,65.3,48.7,30.23,SW,225,0.7,2.2,55,0.00,,,0.00,pywws,2013-05-06 22:05:00,
2013-05-06 18:10:00,64.9,47.9,30.23,West,270,1.6,3.1,54,0.00,,,0.00,pywws,2013-05-06 22:10:00,
2013-05-06 18:15:00,64.8,47.7,30.23,NW,315,2.2,3.8,54,0.00,,,0.00,pywws,2013-05-06 22:15:00,
2013-05-06 18:20:00,64.6,48.0,30.23,NW,315,0.7,2.2,55,0.00,,,0.00,pywws,2013-05-06 22:20:00,
2013-05-06 18:31:00,64.4,47.4,30.23,NW,315,0.7,3.1,54,0.00,,,0.00,pywws,2013-05-06 22:31:00,
2013-05-06 18:36:00,64.0,47.5,30.23,SE,135,0.7,2.2,55,0.00,,,0.00,pywws,2013-05-06 22:36:00,
2013-05-06 18:41:00,64.0,47.5,30.23,West,270,2.2,4.5,55,0.00,,,0.00,pywws,2013-05-06 22:41:00,
2013-05-06 18:46:00,64.0,48.0,30.23,SW,225,1.6,3.1,56,0.00,,,0.00,pywws,2013-05-06 22:46:00,
2013-05-06 18:51:00,63.7,47.7,30.23,NW,315,0.7,2.2,56,0.00,,,0.00,pywws,2013-05-06 22:51:00,
2013-05-06 19:01:00,63.5,48.0,30.23,West,270,1.6,3.1,57,0.00,,,0.00,pywws,2013-05-06 23:01:00,
2013-05-06 19:06:00,63.1,48.6,30.23,WSW,248,0.7,1.6,59,0.00,,,0.00,pywws,2013-05-06 23:06:00,
2013-05-06 19:11:00,63.0,47.9,30.23,WNW,292,2.2,3.8,58,0.00,,,0.00,pywws,2013-05-06 23:11:00,
2013-05-06 19:16:00,62.8,48.2,30.23,NNE,22,0.0,2.2,59,0.00,,,0.00,pywws,2013-05-06 23:16:00,
2013-05-06 19:21:00,62.6,48.1,30.23,West,270,1.6,3.1,59,0.00,,,0.00,pywws,2013-05-06 23:21:00,
2013-05-06 19:31:00,62.4,48.3,30.23,WNW,292,2.2,3.8,60,0.00,,,0.00,pywws,2013-05-06 23:31:00,
2013-05-06 19:35:00,61.9,48.3,30.24,NW,315,1.6,2.2,61,0.00,,,0.00,pywws,2013-05-06 23:35:00,
2013-05-06 19:40:00,61.5,47.9,30.24,West,270,0.7,2.2,61,0.00,,,0.00,pywws,2013-05-06 23:40:00,
2013-05-06 19:45:00,61.3,48.2,30.24,West,270,0.7,1.6,62,0.00,,,0.00,pywws,2013-05-06 23:45:00,
2013-05-06 19:50:00,61.0,48.3,30.24,NW,315,0.0,0.7,63,0.00,,,0.00,pywws,2013-05-06 23:50:00,
2013-05-06 20:01:00,60.8,48.5,30.24,East,90,0.0,0.0,64,0.00,,,0.00,pywws,2013-05-07 00:01:00,
2013-05-06 20:06:00,60.1,48.3,30.24,South,180,0.0,0.0,65,0.00,,,0.00,pywws,2013-05-07 00:06:00,
2013-05-06 20:11:00,60.1,48.7,30.24,West,270,0.0,0.0,66,0.00,,,0.00,pywws,2013-05-07 00:11:00,
2013-05-06 20:16:00,59.9,48.9,30.24,East,90,0.0,0.0,67,0.00,,,0.00,pywws,2013-05-07 00:16:00,
2013-05-06 20:21:00,59.5,49.0,30.24,East,90,0.0,0.0,68,0.00,,,0.00,pywws,2013-05-07 00:21:00,
2013-05-06 20:31:00,59.2,49.0,30.24,East,90,0.0,0.0,69,0.00,,,0.00,pywws,2013-05-07 00:31:00,
2013-05-06 20:35:00,58.8,49.4,30.24,NW,315,0.0,0.0,71,0.00,,,0.00,pywws,2013-05-07 00:35:00,
2013-05-06 20:40:00,58.6,49.3,30.24,North,0,0.0,0.7,71,0.00,,,0.00,pywws,2013-05-07 00:40:00,
2013-05-06 20:45:00,58.6,48.9,30.25,NW,315,0.0,0.7,70,0.00,,,0.00,pywws,2013-05-07 00:45:00,
2013-05-06 20:50:00,58.6,48.5,30.25,SW,225,0.0,2.2,69,0.00,,,0.00,pywws,2013-05-07 00:50:00,
2013-05-06 21:01:00,58.8,48.7,30.25,SW,225,0.0,0.7,69,0.00,,,0.00,pywws,2013-05-07 01:01:00,
2013-05-06 21:06:00,58.8,48.3,30.25,West,270,0.0,0.7,68,0.00,,,0.00,pywws,2013-05-07 01:06:00,
2013-05-06 21:11:00,58.8,47.9,30.25,West,270,0.0,0.7,67,0.00,,,0.00,pywws,2013-05-07 01:11:00,
2013-05-06 21:16:00,58.8,47.5,30.25,SW,225,0.0,0.0,66,0.00,,,0.00,pywws,2013-05-07 01:16:00,
2013-05-06 21:21:00,58.6,47.3,30.25,West,270,0.7,1.6,66,0.00,,,0.00,pywws,2013-05-07 01:21:00,
2013-05-06 21:31:00,58.6,47.3,30.25,West,270,0.0,1.6,66,0.00,,,0.00,pywws,2013-05-07 01:31:00,
2013-05-06 21:35:00,58.5,47.1,30.25,SW,225,0.0,1.6,66,0.00,,,0.00,pywws,2013-05-07 01:35:00,
2013-05-06 21:40:00,58.5,46.7,30.25,West,270,0.0,1.6,65,0.00,,,0.00,pywws,2013-05-07 01:40:00,
2013-05-06 21:45:00,58.5,46.7,30.25,West,270,0.7,1.6,65,0.00,,,0.00,pywws,2013-05-07 01:45:00,
2013-05-06 21:50:00,58.3,47.0,30.25,West,270,0.0,0.0,66,0.00,,,0.00,pywws,2013-05-07 01:50:00,
2013-05-06 22:01:00,58.3,47.0,30.26,West,270,0.0,0.7,66,0.00,,,0.00,pywws,2013-05-07 02:01:00,
2013-05-06 22:05:00,57.9,47.0,30.26,West,270,0.0,0.0,67,0.00,,,0.00,pywws,2013-05-07 02:05:00,
2013-05-06 22:10:00,57.7,47.2,30.26,West,270,0.0,0.0,68,0.00,,,0.00,pywws,2013-05-07 02:10:00,
2013-05-06 22:15:00,57.6,47.1,30.26,NW,315,0.0,0.0,68,0.00,,,0.00,pywws,2013-05-07 02:15:00,
2013-05-06 22:20:00,57.4,47.3,30.26,South,180,0.0,0.0,69,0.00,,,0.00,pywws,2013-05-07 02:20:00,
2013-05-06 22:31:00,57.2,47.1,30.26,South,180,0.0,0.0,69,0.00,,,0.00,pywws,2013-05-07 02:31:00,
2013-05-06 22:36:00,57.0,46.9,30.27,South,180,0.0,0.0,69,0.00,,,0.00,pywws,2013-05-07 02:36:00,
2013-05-06 22:41:00,56.8,47.2,30.27,South,180,0.0,0.0,70,0.00,,,0.00,pywws,2013-05-07 02:41:00,
2013-05-06 22:46:00,56.8,47.2,30.27,South,180,0.0,0.0,70,0.00,,,0.00,pywws,2013-05-07 02:46:00,
2013-05-06 22:51:00,56.8,47.2,30.27,South,180,0.0,0.0,70,0.00,,,0.00,pywws,2013-05-07 02:51:00,
2013-05-06 23:01:00,56.5,47.2,30.28,NE,45,0.0,0.0,71,0.00,,,0.00,pywws,2013-05-07 03:01:00,
2013-05-06 23:06:00,56.1,47.6,30.28,South,180,0.0,0.0,73,0.00,,,0.00,pywws,2013-05-07 03:06:00,
2013-05-06 23:11:00,56.1,47.9,30.29,South,180,0.0,0.0,74,0.00,,,0.00,pywws,2013-05-07 03:11:00,
2013-05-06 23:16:00,55.9,47.8,30.29,South,180,0.0,0.0,74,0.00,,,0.00,pywws,2013-05-07 03:16:00,
2013-05-06 23:21:00,55.9,47.8,30.29,South,180,0.0,0.0,74,0.00,,,0.00,pywws,2013-05-07 03:21:00,
2013-05-06 23:31:00,55.8,47.6,30.29,South,180,0.0,0.0,74,0.00,,,0.00,pywws,2013-05-07 03:31:00,
2013-05-06 23:36:00,55.2,47.4,30.29,South,180,0.0,0.0,75,0.00,,,0.00,pywws,2013-05-07 03:36:00,
2013-05-06 23:41:00,55.0,47.6,30.30,South,180,0.0,0.0,76,0.00,,,0.00,pywws,2013-05-07 03:41:00,
2013-05-06 23:46:00,54.7,47.3,30.30,South,180,0.0,0.0,76,0.00,,,0.00,pywws,2013-05-07 03:46:00,